Time;durP1;ratioP1;P1;durP2;ratioP2;P2;SDS_P1;SDS_P2;PMS_P1;PMS_P2;Temp;Humidity;BMP_temperature;BMP_pressure;BME280_temperature;BME280_humidity;BME280_pressure;Samples;Min_cycle;Max_cycle;Signal;HPM_P1;HPM_P2
2022/11/26 00:00:31;0.00;0.00;0.62;0.00;0.00;0.62;2.40;1.10;;;23.10;26.60;;;;;;2240318;61;20458;-71
2022/11/26 00:03:17;0.00;0.00;0.62;0.00;0.00;0.62;1.50;1.00;;;23.10;26.60;;;;;;2240424;61;20937;-71
2022/11/26 00:06:02;0.00;0.00;0.62;0.00;0.00;0.62;1.73;1.10;;;23.10;26.50;;;;;;2240347;61;20365;-71
2022/11/26 00:08:46;0.00;0.00;0.62;0.00;0.00;0.62;1.93;0.80;;;23.20;26.90;;;;;;2240286;61;20917;-71
2022/11/26 00:11:32;0.00;0.00;0.62;0.00;0.00;0.62;1.90;1.30;;;23.20;26.60;;;;;;2240308;61;20951;-71
2022/11/26 00:14:17;0.00;0.00;0.62;0.00;0.00;0.62;2.40;1.10;;;23.20;26.50;;;;;;2240080;61;20397;-72
2022/11/26 00:17:02;0.00;0.00;0.62;0.00;0.00;0.62;1.40;0.77;;;23.20;26.50;;;;;;2240449;61;20453;-72
2022/11/26 00:19:58;0.00;0.00;0.62;0.00;0.00;0.62;1.87;1.00;;;23.20;26.50;;;;;;2240288;61;20449;-72
2022/11/26 00:22:47;0.00;0.00;0.62;0.00;0.00;0.62;2.40;1.23;;;23.10;26.40;;;;;;2240309;61;20384;-73
2022/11/26 00:25:39;0.00;0.00;0.62;0.00;0.00;0.62;2.07;0.93;;;23.20;26.40;;;;;;2240443;61;20447;-72
2022/11/26 00:28:29;0.00;0.00;0.62;0.00;0.00;0.62;1.70;1.00;;;23.20;26.50;;;;;;2240357;61;20390;-71
2022/11/26 00:31:15;0.00;0.00;0.62;0.00;0.00;0.62;2.33;1.30;;;23.20;26.50;;;;;;2240406;61;20394;-72
2022/11/26 00:34:00;0.00;0.00;0.62;0.00;0.00;0.62;1.47;0.90;;;23.20;26.40;;;;;;2237032;61;20858;-72
2022/11/26 00:36:45;0.00;0.00;0.62;0.00;0.00;0.62;1.70;0.93;;;23.20;26.40;;;;;;2240255;61;20381;-71
2022/11/26 00:39:30;0.00;0.00;0.62;0.00;0.00;0.62;1.67;0.83;;;23.20;26.40;;;;;;2240473;61;20365;-71
2022/11/26 00:42:19;0.00;0.00;0.62;0.00;0.00;0.62;2.17;0.90;;;23.20;26.40;;;;;;2240216;61;20385;-72
2022/11/26 00:45:14;0.00;0.00;0.62;0.00;0.00;0.62;1.50;0.80;;;23.20;26.40;;;;;;2240201;61;20406;-70
2022/11/26 00:48:00;0.00;0.00;0.62;0.00;0.00;0.62;1.63;0.90;;;23.20;26.40;;;;;;2240366;61;20385;-70
2022/11/26 00:50:48;0.00;0.00;0.62;0.00;0.00;0.62;1.93;1.03;;;23.20;26.40;;;;;;2240223;61;20460;-71
2022/11/26 00:53:33;0.00;0.00;0.62;0.00;0.00;0.62;2.27;0.93;;;23.20;26.40;;;;;;2234878;61;20470;-71
2022/11/26 00:56:20;0.00;0.00;0.62;0.00;0.00;0.62;1.70;1.00;;;23.20;26.40;;;;;;2240260;61;20373;-71
2022/11/26 00:59:05;0.00;0.00;0.62;0.00;0.00;0.62;1.50;0.80;;;23.20;26.40;;;;;;2240048;61;20362;-71
2022/11/26 01:01:51;0.00;0.00;0.62;0.00;0.00;0.62;1.60;0.90;;;23.20;26.40;;;;;;2240288;61;20385;-72
2022/11/26 01:04:36;0.00;0.00;0.62;0.00;0.00;0.62;1.80;1.00;;;23.20;26.40;;;;;;2240345;61;20366;-72
2022/11/26 01:07:20;0.00;0.00;0.62;0.00;0.00;0.62;1.40;0.80;;;23.20;26.40;;;;;;2240240;61;20870;-71
2022/11/26 01:10:13;0.00;0.00;0.62;0.00;0.00;0.62;1.57;0.93;;;23.20;26.40;;;;;;2240314;61;20365;-71
2022/11/26 01:12:58;0.00;0.00;0.62;0.00;0.00;0.62;1.63;0.90;;;23.20;26.40;;;;;;2242698;61;20389;-71
2022/11/26 01:15:43;0.00;0.00;0.62;0.00;0.00;0.62;2.00;1.03;;;23.20;26.40;;;;;;2242171;61;20674;-70
2022/11/26 01:18:33;0.00;0.00;0.62;0.00;0.00;0.62;2.33;0.90;;;23.20;26.40;;;;;;2241977;61;20361;-71
2022/11/26 01:21:19;0.00;0.00;0.62;0.00;0.00;0.62;2.00;1.00;;;23.20;26.40;;;;;;2240944;61;20413;-76
2022/11/26 01:24:05;0.00;0.00;0.62;0.00;0.00;0.62;1.63;0.97;;;23.20;26.50;;;;;;2240789;61;20917;-70
2022/11/26 01:26:50;0.00;0.00;0.62;0.00;0.00;0.62;1.67;1.10;;;23.20;26.50;;;;;;2240676;61;20369;-70
2022/11/26 01:29:34;0.00;0.00;0.62;0.00;0.00;0.62;2.00;1.10;;;23.20;26.50;;;;;;2239839;61;20425;-70
2022/11/26 01:32:19;0.00;0.00;0.62;0.00;0.00;0.62;1.50;0.80;;;23.20;26.40;;;;;;2237158;61;20477;-71
2022/11/26 01:35:06;0.00;0.00;0.62;0.00;0.00;0.62;2.20;1.10;;;23.20;26.40;;;;;;2240410;61;20373;-71
2022/11/26 01:37:51;0.00;0.00;0.62;0.00;0.00;0.62;1.70;0.90;;;23.20;26.50;;;;;;2240520;61;20809;-71
2022/11/26 01:40:52;0.00;0.00;0.62;0.00;0.00;0.62;1.70;0.90;;;23.20;26.50;;;;;;2239857;61;20421;-71
2022/11/26 01:43:40;0.00;0.00;0.62;0.00;0.00;0.62;2.57;1.13;;;23.20;26.50;;;;;;2239847;61;20369;-70
2022/11/26 01:46:28;0.00;0.00;0.62;0.00;0.00;0.62;1.47;0.70;;;23.10;26.40;;;;;;2240529;61;20403;-71
2022/11/26 01:49:17;0.00;0.00;0.62;0.00;0.00;0.62;1.80;1.00;;;23.20;26.50;;;;;;2239982;61;20534;-71
2022/11/26 01:52:09;0.00;0.00;0.62;0.00;0.00;0.62;1.40;0.80;;;23.10;26.40;;;;;;2239896;61;20985;-72
2022/11/26 01:54:54;0.00;0.00;0.62;0.00;0.00;0.62;1.70;0.90;;;23.10;26.40;;;;;;2240197;61;20937;-71
2022/11/26 01:57:39;0.00;0.00;0.62;0.00;0.00;0.62;1.83;1.00;;;23.10;26.40;;;;;;2239650;61;20385;-70
2022/11/26 02:00:23;0.00;0.00;0.62;0.00;0.00;0.62;1.40;0.80;;;23.10;26.40;;;;;;2240355;61;20388;-70
2022/11/26 02:03:09;0.00;0.00;0.62;0.00;0.00;0.62;1.80;1.00;;;23.10;26.40;;;;;;2240234;61;20385;-71
2022/11/26 02:05:58;0.00;0.00;0.62;0.00;0.00;0.62;1.40;0.80;;;23.10;26.40;;;;;;2239823;61;20369;-72
2022/11/26 02:08:45;0.00;0.00;0.62;0.00;0.00;0.62;2.87;1.40;;;23.10;26.40;;;;;;2240333;61;20389;-73
2022/11/26 02:11:30;0.00;0.00;0.62;0.00;0.00;0.62;4.83;1.57;;;23.10;26.40;;;;;;2240198;61;20437;-73
2022/11/26 02:14:18;0.00;0.00;0.62;0.00;0.00;0.62;3.80;2.00;;;23.10;26.40;;;;;;2236887;61;20364;-71
2022/11/26 02:17:16;0.00;0.00;0.62;0.00;0.00;0.62;2.73;1.87;;;23.10;26.40;;;;;;2240101;61;20898;-74
2022/11/26 02:20:30;0.00;0.00;0.62;0.00;0.00;0.62;3.23;2.00;;;23.10;26.40;;;;;;2239743;61;20760;-73
2022/11/26 02:24:24;0.00;0.00;0.62;0.00;0.00;0.62;2.90;2.10;;;23.00;26.30;;;;;;2240150;61;20506;-74
2022/11/26 02:27:43;0.00;0.00;0.62;0.00;0.00;0.62;3.10;1.77;;;23.00;26.30;;;;;;2239190;61;20377;-75
2022/11/26 02:30:31;0.00;0.00;0.62;0.00;0.00;0.62;2.13;1.63;;;23.00;26.30;;;;;;2237024;61;20353;-74
2022/11/26 02:33:23;0.00;0.00;0.62;0.00;0.00;0.62;3.80;2.10;;;22.90;26.20;;;;;;2240171;61;20373;-73
2022/11/26 02:36:14;0.00;0.00;0.62;0.00;0.00;0.62;3.80;1.90;;;22.90;26.20;;;;;;2239871;61;20365;-73
2022/11/26 02:39:11;0.00;0.00;0.62;0.00;0.00;0.62;3.33;1.80;;;22.90;26.20;;;;;;2240266;61;20496;-74
2022/11/26 02:41:59;0.00;0.00;0.62;0.00;0.00;0.62;3.57;2.10;;;22.90;26.20;;;;;;2240015;61;20789;-73
2022/11/26 02:44:45;0.00;0.00;0.62;0.00;0.00;0.62;4.03;1.90;;;22.90;26.20;;;;;;2240466;61;20373;-71
2022/11/26 02:47:32;0.00;0.00;0.62;0.00;0.00;0.62;6.73;2.20;;;22.90;26.20;;;;;;2239928;61;20365;-72
2022/11/26 02:50:23;0.00;0.00;0.62;0.00;0.00;0.62;4.90;2.87;;;22.80;26.10;;;;;;2236706;61;20964;-73
2022/11/26 02:53:09;0.00;0.00;0.62;0.00;0.00;0.62;3.10;1.83;;;22.80;26.10;;;;;;2239909;61;20376;-76
2022/11/26 02:56:02;0.00;0.00;0.62;0.00;0.00;0.62;3.83;1.90;;;22.80;26.10;;;;;;2239952;61;20369;-74
2022/11/26 02:58:48;0.00;0.00;0.62;0.00;0.00;0.62;4.60;2.87;;;22.80;26.10;;;;;;2239963;61;20361;-76
2022/11/26 03:01:39;0.00;0.00;0.62;0.00;0.00;0.62;3.00;2.20;;;22.70;26.10;;;;;;2240174;61;20382;-72
2022/11/26 03:04:34;0.00;0.00;0.62;0.00;0.00;0.62;3.23;1.83;;;22.70;26.10;;;;;;2239710;61;20346;-72
2022/11/26 03:07:23;0.00;0.00;0.62;0.00;0.00;0.62;3.80;2.20;;;22.70;26.10;;;;;;2240658;61;20365;-72
2022/11/26 03:10:08;0.00;0.00;0.62;0.00;0.00;0.62;3.70;2.00;;;22.70;26.10;;;;;;2240904;61;20373;-75
2022/11/26 03:12:53;0.00;0.00;0.62;0.00;0.00;0.62;5.00;2.90;;;22.60;26.10;;;;;;2239085;61;20388;-74
2022/11/26 03:15:38;0.00;0.00;0.62;0.00;0.00;0.62;4.60;2.50;;;22.60;26.10;;;;;;2242165;61;20781;-70
2022/11/26 03:18:23;0.00;0.00;0.62;0.00;0.00;0.62;5.67;3.03;;;22.60;26.10;;;;;;2240384;61;20409;-75
2022/11/26 03:21:09;0.00;0.00;0.62;0.00;0.00;0.62;3.63;2.30;;;22.60;26.10;;;;;;2239811;61;20764;-70
2022/11/26 03:23:54;0.00;0.00;0.62;0.00;0.00;0.62;5.17;2.53;;;22.60;26.10;;;;;;2240179;61;20377;-72
2022/11/26 03:26:39;0.00;0.00;0.62;0.00;0.00;0.62;3.63;2.57;;;22.50;26.10;;;;;;2239828;61;20413;-74
2022/11/26 03:29:26;0.00;0.00;0.62;0.00;0.00;0.62;4.53;2.10;;;22.50;26.10;;;;;;2239942;61;20802;-76
2022/11/26 03:32:11;0.00;0.00;0.62;0.00;0.00;0.62;6.00;2.40;;;22.50;26.10;;;;;;2237313;61;20384;-71
2022/11/26 03:34:55;0.00;0.00;0.62;0.00;0.00;0.62;5.23;2.17;;;22.50;26.10;;;;;;2240458;61;20365;-72
2022/11/26 03:37:41;0.00;0.00;0.62;0.00;0.00;0.62;4.33;2.27;;;22.50;26.10;;;;;;2240718;61;20365;-70
2022/11/26 03:40:26;0.00;0.00;0.62;0.00;0.00;0.62;5.40;2.30;;;22.40;26.10;;;;;;2240489;61;20501;-71
2022/11/26 03:43:11;0.00;0.00;0.62;0.00;0.00;0.62;4.70;2.10;;;22.40;26.10;;;;;;2240793;61;20384;-74
2022/11/26 03:45:56;0.00;0.00;0.62;0.00;0.00;0.62;3.33;2.20;;;22.40;26.10;;;;;;2240601;61;20409;-74
2022/11/26 03:48:41;0.00;0.00;0.62;0.00;0.00;0.62;4.90;2.50;;;22.40;26.10;;;;;;2240276;61;20918;-73
2022/11/26 03:51:26;0.00;0.00;0.62;0.00;0.00;0.62;4.50;2.63;;;22.40;26.10;;;;;;2240788;61;20412;-73
2022/11/26 03:54:12;0.00;0.00;0.62;0.00;0.00;0.62;3.17;1.80;;;22.40;26.10;;;;;;2240331;61;20369;-72
2022/11/26 03:56:57;0.00;0.00;0.62;0.00;0.00;0.62;3.23;1.93;;;22.40;26.10;;;;;;2240405;61;20378;-71
2022/11/26 03:59:42;0.00;0.00;0.62;0.00;0.00;0.62;4.33;2.03;;;22.30;26.00;;;;;;2240514;61;20386;-73
2022/11/26 04:02:26;0.00;0.00;0.62;0.00;0.00;0.62;5.60;2.53;;;22.30;26.00;;;;;;2240421;61;20406;-72
2022/11/26 04:05:11;0.00;0.00;0.62;0.00;0.00;0.62;3.20;2.07;;;22.30;26.00;;;;;;2240379;61;20400;-75
2022/11/26 04:07:56;0.00;0.00;0.62;0.00;0.00;0.62;3.63;2.10;;;22.30;26.00;;;;;;2240551;61;20502;-74
2022/11/26 04:10:42;0.00;0.00;0.62;0.00;0.00;0.62;4.77;2.53;;;22.30;26.10;;;;;;2240302;61;20402;-72
2022/11/26 04:13:27;0.00;0.00;0.62;0.00;0.00;0.62;4.27;2.00;;;22.30;26.10;;;;;;2237809;61;20450;-72
2022/11/26 04:16:11;0.00;0.00;0.62;0.00;0.00;0.62;4.93;2.60;;;22.20;26.50;;;;;;2240229;61;20405;-72
2022/11/26 04:18:56;0.00;0.00;0.62;0.00;0.00;0.62;3.23;1.87;;;22.30;26.00;;;;;;2240388;61;20758;-73
2022/11/26 04:21:40;0.00;0.00;0.62;0.00;0.00;0.62;3.30;1.80;;;22.20;26.00;;;;;;2240369;61;20465;-73
2022/11/26 04:24:25;0.00;0.00;0.62;0.00;0.00;0.62;3.10;1.80;;;22.20;26.00;;;;;;2240401;61;20919;-72
2022/11/26 04:27:11;0.00;0.00;0.62;0.00;0.00;0.62;3.40;2.17;;;22.20;26.00;;;;;;2240321;61;20369;-74
2022/11/26 04:29:56;0.00;0.00;0.62;0.00;0.00;0.62;4.07;1.97;;;22.20;26.00;;;;;;2240339;61;20530;-74
2022/11/26 04:32:41;0.00;0.00;0.62;0.00;0.00;0.62;2.97;2.00;;;22.20;26.00;;;;;;2240471;61;20807;-74
2022/11/26 04:35:26;0.00;0.00;0.62;0.00;0.00;0.62;5.43;2.27;;;22.10;26.00;;;;;;2240625;61;20905;-71
2022/11/26 04:38:13;0.00;0.00;0.62;0.00;0.00;0.62;5.20;2.43;;;22.10;26.00;;;;;;2240214;61;20453;-73
2022/11/26 04:40:58;0.00;0.00;0.62;0.00;0.00;0.62;4.30;1.93;;;22.10;26.00;;;;;;2237024;61;20952;-71
2022/11/26 04:43:44;0.00;0.00;0.62;0.00;0.00;0.62;2.97;2.17;;;22.10;26.00;;;;;;2240203;61;20599;-71
2022/11/26 04:46:29;0.00;0.00;0.62;0.00;0.00;0.62;3.30;1.80;;;22.10;26.00;;;;;;2240364;61;20393;-70
2022/11/26 04:49:16;0.00;0.00;0.62;0.00;0.00;0.62;4.23;2.17;;;22.00;26.00;;;;;;2240227;61;20393;-71
2022/11/26 04:52:06;0.00;0.00;0.62;0.00;0.00;0.62;2.50;1.80;;;22.00;26.00;;;;;;2240262;61;20800;-75
2022/11/26 04:54:51;0.00;0.00;0.62;0.00;0.00;0.62;3.20;2.07;;;22.00;26.00;;;;;;2240501;61;20827;-71
2022/11/26 04:57:36;0.00;0.00;0.62;0.00;0.00;0.62;2.80;1.80;;;22.00;26.00;;;;;;2240498;61;20461;-71
2022/11/26 05:00:23;0.00;0.00;0.62;0.00;0.00;0.62;3.70;2.30;;;22.00;26.00;;;;;;2240022;61;20882;-73
2022/11/26 05:03:08;0.00;0.00;0.62;0.00;0.00;0.62;4.40;2.07;;;22.00;26.00;;;;;;2240158;61;20409;-73
2022/11/26 05:05:53;0.00;0.00;0.62;0.00;0.00;0.62;3.10;2.20;;;22.00;26.00;;;;;;2240684;61;20761;-74
2022/11/26 05:08:37;0.00;0.00;0.62;0.00;0.00;0.62;3.00;2.07;;;22.00;26.00;;;;;;2241740;61;20389;-71
2022/11/26 05:11:22;0.00;0.00;0.62;0.00;0.00;0.62;3.30;2.20;;;21.90;25.90;;;;;;2242604;61;20465;-72
2022/11/26 05:14:24;;;;;;;;;;;;;;;;;;;;;
2022/11/26 05:17:12;0.00;0.00;0.62;0.00;0.00;0.62;3.23;1.90;;;21.90;26.00;;;;;;2234079;61;20416;-72
2022/11/26 05:20:02;0.00;0.00;0.62;0.00;0.00;0.62;3.43;1.97;;;21.90;26.00;;;;;;2240523;61;20377;-71
2022/11/26 05:22:49;0.00;0.00;0.62;0.00;0.00;0.62;5.40;1.90;;;21.90;26.00;;;;;;2237001;61;20533;-74
2022/11/26 05:25:34;0.00;0.00;0.62;0.00;0.00;0.62;3.90;2.40;;;21.80;25.90;;;;;;2236979;61;20374;-71
2022/11/26 05:28:18;0.00;0.00;0.62;0.00;0.00;0.62;3.23;2.13;;;21.90;26.00;;;;;;2240325;61;20432;-74
2022/11/26 05:31:03;0.00;0.00;0.62;0.00;0.00;0.62;4.47;2.07;;;21.80;25.90;;;;;;2237010;61;20380;-72
2022/11/26 05:33:50;0.00;0.00;0.62;0.00;0.00;0.62;3.43;2.10;;;21.80;25.90;;;;;;2240153;61;20365;-72
2022/11/26 05:36:35;0.00;0.00;0.62;0.00;0.00;0.62;2.70;2.00;;;21.80;26.40;;;;;;2240315;61;20890;-75
2022/11/26 05:39:21;0.00;0.00;0.62;0.00;0.00;0.62;2.90;1.80;;;21.80;25.90;;;;;;2240096;61;20409;-73
2022/11/26 05:42:05;0.00;0.00;0.62;0.00;0.00;0.62;3.33;2.17;;;21.80;25.90;;;;;;2240583;61;20433;-73
2022/11/26 05:44:50;0.00;0.00;0.62;0.00;0.00;0.62;3.77;2.07;;;21.80;25.90;;;;;;2239862;61;20457;-74
2022/11/26 05:47:35;0.00;0.00;0.62;0.00;0.00;0.62;2.90;1.87;;;21.80;25.90;;;;;;2240171;61;20436;-70
2022/11/26 05:50:21;0.00;0.00;0.62;0.00;0.00;0.62;3.47;2.10;;;21.70;25.90;;;;;;2240046;61;20352;-72
2022/11/26 05:53:10;0.00;0.00;0.62;0.00;0.00;0.62;3.40;2.43;;;21.70;25.90;;;;;;2240021;61;20425;-70
2022/11/26 05:55:55;0.00;0.00;0.62;0.00;0.00;0.62;3.83;2.30;;;21.70;25.90;;;;;;2239902;61;20955;-71
2022/11/26 05:58:42;0.00;0.00;0.62;0.00;0.00;0.62;3.83;2.37;;;21.70;25.90;;;;;;2240259;61;20350;-69
2022/11/26 06:01:27;0.00;0.00;0.62;0.00;0.00;0.62;3.63;2.57;;;21.70;25.80;;;;;;2239962;61;20381;-72
2022/11/26 06:04:12;0.00;0.00;0.62;0.00;0.00;0.62;3.27;2.10;;;21.70;25.80;;;;;;2240102;61;20408;-70
2022/11/26 06:06:58;0.00;0.00;0.62;0.00;0.00;0.62;3.53;2.23;;;21.70;25.80;;;;;;2239885;61;20934;-71
2022/11/26 06:09:42;0.00;0.00;0.62;0.00;0.00;0.62;3.70;2.00;;;21.70;25.90;;;;;;2239854;61;20432;-70
2022/11/26 06:12:27;0.00;0.00;0.62;0.00;0.00;0.62;3.20;2.20;;;21.60;25.80;;;;;;2240210;61;20834;-75
2022/11/26 06:15:12;0.00;0.00;0.62;0.00;0.00;0.62;3.60;2.27;;;21.60;25.80;;;;;;2240085;61;20505;-72
2022/11/26 06:17:57;0.00;0.00;0.62;0.00;0.00;0.62;3.40;2.07;;;21.60;25.80;;;;;;2239847;61;20416;-73
2022/11/26 06:20:41;0.00;0.00;0.62;0.00;0.00;0.62;4.00;2.53;;;21.60;25.80;;;;;;2240000;61;20361;-72
2022/11/26 06:23:28;0.00;0.00;0.62;0.00;0.00;0.62;2.70;2.23;;;21.60;25.80;;;;;;2240042;61;20433;-74
2022/11/26 06:26:12;0.00;0.00;0.62;0.00;0.00;0.62;4.30;2.73;;;21.60;25.80;;;;;;2240031;61;20501;-73
2022/11/26 06:28:57;0.00;0.00;0.62;0.00;0.00;0.62;3.07;2.40;;;21.60;25.80;;;;;;2240126;61;20467;-71
2022/11/26 06:31:42;0.00;0.00;0.62;0.00;0.00;0.62;3.63;2.20;;;21.60;25.80;;;;;;2236775;61;20413;-73
2022/11/26 06:34:26;0.00;0.00;0.62;0.00;0.00;0.62;3.20;2.30;;;21.50;25.70;;;;;;2240217;61;20368;-71
2022/11/26 06:37:11;0.00;0.00;0.62;0.00;0.00;0.62;3.37;2.50;;;21.50;25.70;;;;;;2240032;61;20825;-72
2022/11/26 06:39:57;0.00;0.00;0.62;0.00;0.00;0.62;3.00;2.10;;;21.50;25.70;;;;;;2239770;61;20421;-72
2022/11/26 06:42:47;0.00;0.00;0.62;0.00;0.00;0.62;4.23;2.70;;;21.50;25.70;;;;;;2240086;61;20394;-72
2022/11/26 06:45:34;0.00;0.00;0.62;0.00;0.00;0.62;2.90;2.53;;;21.50;25.80;;;;;;2239938;61;20413;-73
2022/11/26 06:48:23;0.00;0.00;0.62;0.00;0.00;0.62;3.57;2.30;;;21.50;25.70;;;;;;2239983;61;20425;-69
2022/11/26 06:51:10;0.00;0.00;0.62;0.00;0.00;0.62;3.90;2.73;;;21.50;25.70;;;;;;2239938;61;20934;-69
2022/11/26 06:53:56;0.00;0.00;0.62;0.00;0.00;0.62;6.63;2.60;;;21.40;25.70;;;;;;2239933;61;20389;-73
2022/11/26 06:56:42;0.00;0.00;0.62;0.00;0.00;0.62;4.90;2.90;;;21.40;25.60;;;;;;2239988;61;20425;-65
2022/11/26 06:59:26;0.00;0.00;0.62;0.00;0.00;0.62;4.30;2.43;;;21.40;25.60;;;;;;2239987;61;20409;-67
2022/11/26 07:02:11;0.00;0.00;0.62;0.00;0.00;0.62;5.17;3.00;;;21.40;25.70;;;;;;2239792;61;20428;-65
2022/11/26 07:04:55;0.00;0.00;0.62;0.00;0.00;0.62;3.63;2.60;;;21.40;25.70;;;;;;2236823;61;20369;-68
2022/11/26 07:07:40;0.00;0.00;0.62;0.00;0.00;0.62;3.40;2.33;;;21.40;25.70;;;;;;2240804;61;20369;-67
2022/11/26 07:10:24;0.00;0.00;0.62;0.00;0.00;0.62;3.70;2.30;;;21.40;25.70;;;;;;2240553;61;20386;-63
2022/11/26 07:13:10;0.00;0.00;0.62;0.00;0.00;0.62;3.20;2.17;;;21.30;25.60;;;;;;2240424;61;20381;-68
2022/11/26 07:15:55;0.00;0.00;0.62;0.00;0.00;0.62;3.57;2.43;;;21.30;25.60;;;;;;2240352;61;20424;-64
2022/11/26 07:18:39;0.00;0.00;0.62;0.00;0.00;0.62;4.60;2.50;;;21.30;25.70;;;;;;2240649;61;20417;-63
2022/11/26 07:21:25;0.00;0.00;0.62;0.00;0.00;0.62;3.80;2.80;;;21.30;26.20;;;;;;2240491;61;20464;-63
2022/11/26 07:24:10;0.00;0.00;0.62;0.00;0.00;0.62;3.10;2.17;;;21.30;25.70;;;;;;2240499;61;20372;-66
2022/11/26 07:26:55;0.00;0.00;0.62;0.00;0.00;0.62;3.77;3.10;;;21.30;25.70;;;;;;2240893;61;20452;-69
2022/11/26 07:29:41;0.00;0.00;0.62;0.00;0.00;0.62;4.30;2.63;;;21.30;25.70;;;;;;2240362;61;21010;-69
2022/11/26 07:32:26;0.00;0.00;0.62;0.00;0.00;0.62;3.17;2.30;;;21.30;25.70;;;;;;2240373;61;20482;-68
2022/11/26 07:35:10;0.00;0.00;0.62;0.00;0.00;0.62;3.60;2.30;;;21.30;26.20;;;;;;2240675;61;21071;-68
2022/11/26 07:37:55;0.00;0.00;0.62;0.00;0.00;0.62;4.00;3.20;;;21.20;25.60;;;;;;2240679;61;20899;-68
2022/11/26 07:40:40;0.00;0.00;0.62;0.00;0.00;0.62;3.93;2.73;;;21.30;25.70;;;;;;2240562;61;20373;-66
2022/11/26 07:43:25;0.00;0.00;0.62;0.00;0.00;0.62;3.43;2.70;;;21.20;25.50;;;;;;2240427;61;20365;-62
2022/11/26 07:46:13;0.00;0.00;0.62;0.00;0.00;0.62;3.00;2.20;;;21.20;25.50;;;;;;2240444;61;20369;-67
2022/11/26 07:48:58;0.00;0.00;0.62;0.00;0.00;0.62;4.07;2.80;;;21.20;25.50;;;;;;2240604;61;20444;-68
2022/11/26 07:51:42;0.00;0.00;0.62;0.00;0.00;0.62;2.80;2.53;;;21.20;25.60;;;;;;2240205;61;20436;-67
2022/11/26 07:54:27;0.00;0.00;0.62;0.00;0.00;0.62;6.90;2.10;;;21.20;25.60;;;;;;2240317;61;20366;-68
2022/11/26 07:57:12;0.00;0.00;0.62;0.00;0.00;0.62;2.93;2.10;;;21.20;25.60;;;;;;2240660;61;20413;-68
2022/11/26 07:59:56;0.00;0.00;0.62;0.00;0.00;0.62;4.13;2.90;;;21.20;26.10;;;;;;2237210;61;20866;-68
2022/11/26 08:02:42;0.00;0.00;0.62;0.00;0.00;0.62;3.37;2.27;;;21.20;25.60;;;;;;2240736;61;20441;-68
2022/11/26 08:05:27;0.00;0.00;0.62;0.00;0.00;0.62;3.20;2.27;;;21.20;25.70;;;;;;2240308;61;20401;-68
2022/11/26 08:08:12;0.00;0.00;0.62;0.00;0.00;0.62;3.57;1.90;;;21.20;25.60;;;;;;2240309;61;20429;-68
2022/11/26 08:10:57;0.00;0.00;0.62;0.00;0.00;0.62;2.77;2.43;;;21.20;25.60;;;;;;2240418;61;20894;-68
2022/11/26 08:13:42;0.00;0.00;0.62;0.00;0.00;0.62;3.43;2.20;;;21.20;25.60;;;;;;2240372;61;20365;-67
2022/11/26 08:16:27;0.00;0.00;0.62;0.00;0.00;0.62;3.63;2.20;;;21.30;25.70;;;;;;2240241;61;20357;-68
2022/11/26 08:19:13;0.00;0.00;0.62;0.00;0.00;0.62;2.80;2.00;;;21.20;25.60;;;;;;2240238;61;20365;-68
2022/11/26 08:21:58;0.00;0.00;0.62;0.00;0.00;0.62;3.47;2.00;;;21.30;25.70;;;;;;2240546;61;20441;-68
2022/11/26 08:24:42;0.00;0.00;0.62;0.00;0.00;0.62;3.23;1.70;;;21.30;25.70;;;;;;2240209;61;20368;-68
2022/11/26 08:27:27;0.00;0.00;0.62;0.00;0.00;0.62;2.40;1.83;;;21.30;25.70;;;;;;2240423;61;20457;-68
2022/11/26 08:30:13;0.00;0.00;0.62;0.00;0.00;0.62;2.67;2.00;;;21.30;25.70;;;;;;2239998;61;20389;-68
2022/11/26 08:32:58;0.00;0.00;0.62;0.00;0.00;0.62;2.43;1.70;;;21.30;25.70;;;;;;2240430;61;20473;-68
2022/11/26 08:35:44;0.00;0.00;0.62;0.00;0.00;0.62;2.33;1.77;;;21.30;25.80;;;;;;2240341;61;20390;-67
2022/11/26 08:38:29;0.00;0.00;0.62;0.00;0.00;0.62;2.90;2.20;;;21.30;25.80;;;;;;2240209;61;20926;-68
2022/11/26 08:41:14;0.00;0.00;0.62;0.00;0.00;0.62;3.30;1.80;;;21.30;25.80;;;;;;2240198;61;20400;-68
2022/11/26 08:43:58;0.00;0.00;0.62;0.00;0.00;0.62;2.57;1.80;;;21.30;25.80;;;;;;2240317;61;20373;-68
2022/11/26 08:46:43;0.00;0.00;0.62;0.00;0.00;0.62;2.30;1.77;;;21.30;25.80;;;;;;2240227;61;20395;-68
2022/11/26 08:49:28;0.00;0.00;0.62;0.00;0.00;0.62;2.03;1.40;;;21.40;25.90;;;;;;2240412;61;20393;-68
2022/11/26 08:52:14;0.00;0.00;0.62;0.00;0.00;0.62;2.07;1.47;;;21.40;25.90;;;;;;2239981;61;20461;-68
2022/11/26 08:54:59;0.00;0.00;0.62;0.00;0.00;0.62;1.87;1.50;;;21.40;25.90;;;;;;2240442;61;20373;-67
2022/11/26 08:57:45;0.00;0.00;0.62;0.00;0.00;0.62;2.93;1.70;;;21.40;25.90;;;;;;2240330;61;20425;-68
2022/11/26 09:00:30;0.00;0.00;0.62;0.00;0.00;0.62;2.20;1.57;;;21.40;25.90;;;;;;2240027;61;20372;-68
2022/11/26 09:03:14;0.00;0.00;0.62;0.00;0.00;0.62;2.67;1.90;;;21.50;25.90;;;;;;2237230;61;20783;-68
2022/11/26 09:06:00;0.00;0.00;0.62;0.00;0.00;0.62;3.30;1.50;;;21.50;25.90;;;;;;2240257;61;20494;-68
2022/11/26 09:11:55;0.00;0.00;0.62;0.00;0.00;0.62;1.97;1.60;;;21.50;25.90;;;;;;2240424;61;20392;-68
2022/11/26 09:14:40;0.00;0.00;0.62;0.00;0.00;0.62;5.30;1.50;;;21.60;26.00;;;;;;2240349;61;20362;-68
2022/11/26 09:17:25;0.00;0.00;0.62;0.00;0.00;0.62;2.27;1.53;;;21.60;26.00;;;;;;2237173;61;20366;-68
2022/11/26 09:20:11;0.00;0.00;0.62;0.00;0.00;0.62;1.63;1.20;;;21.60;26.00;;;;;;2240080;61;20413;-68
2022/11/26 09:22:56;0.00;0.00;0.62;0.00;0.00;0.62;2.30;1.80;;;21.60;26.00;;;;;;2240146;61;20405;-68
2022/11/26 09:25:42;0.00;0.00;0.62;0.00;0.00;0.62;2.40;1.93;;;21.70;26.00;;;;;;2240089;61;20388;-68
2022/11/26 09:28:27;0.00;0.00;0.62;0.00;0.00;0.62;1.77;1.40;;;21.70;26.00;;;;;;2240074;61;20436;-67
2022/11/26 09:31:12;0.00;0.00;0.62;0.00;0.00;0.62;3.00;1.40;;;21.70;26.00;;;;;;2239832;61;20385;-67
2022/11/26 09:34:01;0.00;0.00;0.62;0.00;0.00;0.62;2.17;1.63;;;21.70;26.00;;;;;;2240315;61;20878;-69
2022/11/26 09:36:46;0.00;0.00;0.62;0.00;0.00;0.62;3.10;1.50;;;21.70;26.00;;;;;;2240048;61;20425;-68
2022/11/26 09:39:31;0.00;0.00;0.62;0.00;0.00;0.62;1.90;1.50;;;21.80;26.00;;;;;;2240194;61;20933;-68
2022/11/26 09:42:30;0.00;0.00;0.62;0.00;0.00;0.62;2.07;1.47;;;21.80;26.10;;;;;;2240010;61;20385;-69
2022/11/26 09:45:32;0.00;0.00;0.62;0.00;0.00;0.62;2.43;1.77;;;21.80;26.00;;;;;;2239925;61;20882;-68
2022/11/26 09:48:21;0.00;0.00;0.62;0.00;0.00;0.62;1.87;1.43;;;21.80;26.00;;;;;;2240213;61;20448;-69
2022/11/26 09:51:12;0.00;0.00;0.62;0.00;0.00;0.62;1.90;1.30;;;21.90;26.10;;;;;;2240054;61;20382;-68
2022/11/26 09:53:58;0.00;0.00;0.62;0.00;0.00;0.62;2.53;1.83;;;21.90;26.10;;;;;;2240505;61;20417;-68
2022/11/26 09:56:43;0.00;0.00;0.62;0.00;0.00;0.62;1.90;1.20;;;21.90;26.10;;;;;;2239787;61;20948;-68
2022/11/26 09:59:29;0.00;0.00;0.62;0.00;0.00;0.62;2.40;1.43;;;21.90;26.10;;;;;;2240038;61;20751;-68
2022/11/26 10:02:15;0.00;0.00;0.62;0.00;0.00;0.62;1.90;1.37;;;22.00;26.10;;;;;;2240272;61;20393;-68
2022/11/26 10:04:59;0.00;0.00;0.62;0.00;0.00;0.62;1.73;1.20;;;22.00;26.10;;;;;;2240023;61;20894;-68
2022/11/26 10:08:01;0.00;0.00;0.62;0.00;0.00;0.62;1.90;1.20;;;22.00;26.10;;;;;;2236966;61;20377;-68
2022/11/26 10:10:53;0.00;0.00;0.62;0.00;0.00;0.62;2.37;1.53;;;22.00;26.10;;;;;;2240072;61;20492;-68
2022/11/26 10:13:46;0.00;0.00;0.62;0.00;0.00;0.62;3.80;1.43;;;22.10;26.10;;;;;;2239878;61;20365;-68
2022/11/26 10:16:42;0.00;0.00;0.62;0.00;0.00;0.62;2.27;1.57;;;22.10;26.10;;;;;;2240003;61;20366;-69
2022/11/26 10:19:35;0.00;0.00;0.62;0.00;0.00;0.62;1.83;1.37;;;22.20;26.20;;;;;;2239994;61;20502;-69
2022/11/26 10:22:25;0.00;0.00;0.62;0.00;0.00;0.62;2.17;1.43;;;22.20;26.20;;;;;;2240065;61;20958;-67
2022/11/26 10:25:16;0.00;0.00;0.62;0.00;0.00;0.62;2.30;1.27;;;22.20;26.10;;;;;;2240065;61;20354;-69
2022/11/26 10:28:07;0.00;0.00;0.62;0.00;0.00;0.62;2.43;1.23;;;22.20;26.10;;;;;;2239972;61;20445;-68
2022/11/26 10:30:58;0.00;0.00;0.62;0.00;0.00;0.62;2.07;1.30;;;22.20;26.20;;;;;;2240245;61;20369;-69
2022/11/26 10:33:53;0.00;0.00;0.62;0.00;0.00;0.62;1.70;1.20;;;22.30;26.20;;;;;;2240002;61;20421;-68
2022/11/26 10:36:41;0.00;0.00;0.62;0.00;0.00;0.62;1.87;1.17;;;22.30;26.30;;;;;;2239976;61;20386;-69
2022/11/26 10:39:26;0.00;0.00;0.62;0.00;0.00;0.62;1.63;1.10;;;22.30;26.30;;;;;;2239962;61;20426;-68
2022/11/26 10:42:17;0.00;0.00;0.62;0.00;0.00;0.62;1.97;1.10;;;22.30;26.30;;;;;;2239974;61;20965;-69
2022/11/26 10:45:16;0.00;0.00;0.62;0.00;0.00;0.62;2.10;1.37;;;22.40;26.30;;;;;;2239871;61;20771;-69
2022/11/26 10:48:18;0.00;0.00;0.62;0.00;0.00;0.62;2.10;1.40;;;22.40;26.30;;;;;;2240201;61;20378;-69
2022/11/26 10:51:15;0.00;0.00;0.62;0.00;0.00;0.62;2.00;1.33;;;22.50;26.30;;;;;;2239717;61;20444;-68
2022/11/26 10:54:03;0.00;0.00;0.62;0.00;0.00;0.62;1.90;1.40;;;22.50;26.30;;;;;;2240357;61;20466;-68
2022/11/26 10:56:52;0.00;0.00;0.62;0.00;0.00;0.62;2.00;1.27;;;22.50;26.10;;;;;;2239890;61;20405;-68
2022/11/26 10:59:43;0.00;0.00;0.62;0.00;0.00;0.62;2.20;1.50;;;22.60;26.10;;;;;;2239665;61;20370;-68
2022/11/26 11:02:33;0.00;0.00;0.62;0.00;0.00;0.62;1.80;1.30;;;22.60;26.00;;;;;;2240025;61;20385;-69
2022/11/26 11:05:19;0.00;0.00;0.62;0.00;0.00;0.62;1.70;1.30;;;22.70;26.00;;;;;;2239654;61;20369;-69